Time;durP1;ratioP1;P1;durP2;ratioP2;P2;SDS_P1;SDS_P2;PMS_P1;PMS_P2;Temp;Humidity;BMP_temperature;BMP_pressure;BME280_temperature;BME280_humidity;BME280_pressure;Samples;Min_cycle;Max_cycle;Signal;HPM_P1;HPM_P2
2022/08/01 00:01:12;;;;;;;;;;;;;;;26.28;27.83;99953.66;5012947;28;19921;-74
2022/08/01 00:03:37;;;;;;;;;;;;;;;26.20;27.92;99950.31;5012968;28;20052;-75
2022/08/01 00:06:06;;;;;;;;;;;;;;;26.25;28.36;99952.53;5012844;28;20386;-75
2022/08/01 00:08:31;;;;;;;;;;;;;;;26.29;28.11;99946.66;5012792;28;19909;-75
2022/08/01 00:10:56;;;;;;;;;;;;;;;26.27;28.41;99946.38;5012741;28;19913;-75
2022/08/01 00:13:24;;;;;;;;;;;;;;;26.39;28.52;99951.09;5013405;28;19916;-75
2022/08/01 00:15:49;;;;;;;;;;;;;;;26.56;27.69;99946.66;5012709;28;19913;-75
2022/08/01 00:18:15;;;;;;;;;;;;;;;26.37;28.11;99948.72;5012917;28;19917;-75
2022/08/01 00:20:40;;;;;;;;;;;;;;;26.51;28.08;99952.22;5012557;28;20323;-74
2022/08/01 00:23:06;;;;;;;;;;;;;;;26.43;28.72;99948.91;5012465;28;19909;-75
2022/08/01 00:25:31;;;;;;;;;;;;;;;26.51;28.45;99941.59;5012643;28;20348;-74
2022/08/01 00:27:57;;;;;;;;;;;;;;;26.41;28.53;99945.69;5012643;28;19917;-75
2022/08/01 00:30:22;;;;;;;;;;;;;;;26.33;29.13;99941.59;5012504;28;20016;-75
2022/08/01 00:32:50;;;;;;;;;;;;;;;26.26;29.47;99939.88;5012593;28;19909;-74
2022/08/01 00:35:16;;;;;;;;;;;;;;;26.19;29.75;99943.03;5012115;28;20004;-75
2022/08/01 00:37:41;;;;;;;;;;;;;;;26.16;30.52;99940.34;5012573;28;20017;-74
2022/08/01 00:40:10;;;;;;;;;;;;;;;26.12;31.42;99937.66;5012513;28;19913;-74
2022/08/01 00:42:38;;;;;;;;;;;;;;;26.10;31.54;99934.50;5012556;28;19916;-75
2022/08/01 00:45:05;;;;;;;;;;;;;;;26.18;32.21;99934.97;5012515;28;19957;-75
2022/08/01 00:47:33;;;;;;;;;;;;;;;26.18;30.59;99926.41;5012138;28;19913;-74
2022/08/01 00:49:59;;;;;;;;;;;;;;;26.24;30.17;99927.34;5012553;28;19916;-74
2022/08/01 00:52:27;;;;;;;;;;;;;;;26.22;30.64;99933.53;5012496;28;19909;-73
2022/08/01 00:54:55;;;;;;;;;;;;;;;26.23;30.68;99932.25;5014228;28;19914;-75
2022/08/01 00:57:21;;;;;;;;;;;;;;;26.21;30.14;99934.81;5012449;28;19909;-73
2022/08/01 00:59:50;;;;;;;;;;;;;;;26.25;31.71;99928.91;5012341;28;19917;-74
2022/08/01 01:02:16;;;;;;;;;;;;;;;26.22;30.87;99927.03;5012399;28;19909;-73
2022/08/01 01:04:42;;;;;;;;;;;;;;;26.28;31.08;99925.13;5014025;28;19960;-76
2022/08/01 01:07:21;;;;;;;;;;;;;;;26.27;31.90;99926.41;5012495;28;20368;-74
2022/08/01 01:10:01;;;;;;;;;;;;;;;26.11;29.82;99928.31;5012913;28;20371;-73
2022/08/01 01:12:35;;;;;;;;;;;;;;;26.08;29.83;99928.47;5013475;28;19910;-75
2022/08/01 01:15:06;;;;;;;;;;;;;;;25.93;29.79;99919.75;5012394;28;19971;-76
2022/08/01 01:17:36;;;;;;;;;;;;;;;26.05;32.63;99933.06;5012194;28;19913;-75
2022/08/01 01:20:05;;;;;;;;;;;;;;;26.00;30.87;99928.00;5012013;28;19996;-75
2022/08/01 01:22:30;;;;;;;;;;;;;;;26.09;30.62;99927.19;5012061;28;19909;-75
2022/08/01 01:25:15;;;;;;;;;;;;;;;26.01;30.77;99923.88;5012001;28;19959;-75
2022/08/01 01:28:06;;;;;;;;;;;;;;;25.97;31.01;99926.09;5012044;28;19910;-75
2022/08/01 01:30:32;;;;;;;;;;;;;;;25.98;31.70;99926.88;4989129;28;19919;-75
2022/08/01 01:33:03;;;;;;;;;;;;;;;25.90;33.00;99920.72;5012547;28;20259;-75
2022/08/01 01:35:31;;;;;;;;;;;;;;;25.87;32.08;99921.66;5013655;28;19913;-75
2022/08/01 01:38:04;;;;;;;;;;;;;;;25.87;33.03;99921.66;5015608;28;19909;-73
2022/08/01 01:40:30;;;;;;;;;;;;;;;25.87;33.61;99921.66;5016816;28;19909;-74
2022/08/01 01:42:58;;;;;;;;;;;;;;;25.83;33.16;99918.16;5015172;28;19909;-73
2022/08/01 01:45:26;;;;;;;;;;;;;;;25.79;33.36;99920.41;5015456;28;19916;-73
2022/08/01 01:47:55;;;;;;;;;;;;;;;25.68;33.98;99914.34;5015259;28;20004;-74
2022/08/01 01:50:21;;;;;;;;;;;;;;;25.58;33.91;99917.19;5015625;28;19917;-73
2022/08/01 01:52:50;;;;;;;;;;;;;;;25.52;33.68;99927.63;5015447;28;20020;-76
2022/08/01 01:55:16;;;;;;;;;;;;;;;25.49;33.87;99925.69;5015250;28;19909;-73
2022/08/01 01:57:43;;;;;;;;;;;;;;;25.46;33.66;99920.97;5015315;28;19917;-74
2022/08/01 02:00:12;;;;;;;;;;;;;;;25.37;34.30;99920.94;5014985;28;19955;-73
2022/08/01 02:02:37;;;;;;;;;;;;;;;25.36;34.23;99910.81;5015046;28;19948;-73
2022/08/01 02:05:06;;;;;;;;;;;;;;;25.29;33.66;99917.59;5015244;28;19972;-73
2022/08/01 02:07:32;;;;;;;;;;;;;;;25.24;34.12;99908.88;5015284;28;19932;-73
2022/08/01 02:10:02;;;;;;;;;;;;;;;25.16;33.77;99916.94;5014949;28;19920;-74
2022/08/01 02:12:34;;;;;;;;;;;;;;;25.15;34.14;99906.03;5015310;28;20409;-74
2022/08/01 02:15:00;;;;;;;;;;;;;;;25.15;34.34;99911.72;5014849;28;19960;-74
2022/08/01 02:17:29;;;;;;;;;;;;;;;25.11;34.82;99911.06;5014730;28;20054;-74
2022/08/01 02:19:57;;;;;;;;;;;;;;;25.08;34.19;99913.56;5014657;28;19917;-74
2022/08/01 02:22:28;;;;;;;;;;;;;;;25.06;34.07;99921.00;5015119;28;20354;-74
2022/08/01 02:25:08;;;;;;;;;;;;;;;25.01;33.66;99908.16;5015074;28;19983;-74
2022/08/01 02:27:37;;;;;;;;;;;;;;;25.00;34.01;99908.63;5014813;28;19916;-74
2022/08/01 02:30:05;;;;;;;;;;;;;;;24.98;34.69;99914.78;5014611;28;19967;-74
2022/08/01 02:32:32;;;;;;;;;;;;;;;25.01;33.65;99908.16;5014712;28;20271;-74
2022/08/01 02:35:00;;;;;;;;;;;;;;;25.02;33.62;99909.72;5014217;28;19971;-74
2022/08/01 02:37:31;;;;;;;;;;;;;;;25.01;35.15;99908.16;5014535;28;20424;-73
2022/08/01 02:40:02;;;;;;;;;;;;;;;24.94;34.13;99907.66;5014565;28;20332;-73
2022/08/01 02:42:31;;;;;;;;;;;;;;;24.92;34.60;99901.63;5015592;28;19983;-74
2022/08/01 02:44:59;;;;;;;;;;;;;;;24.93;34.63;99900.34;5014263;28;19913;-74
2022/08/01 02:47:30;;;;;;;;;;;;;;;24.90;33.83;99907.78;5014489;28;20355;-74
2022/08/01 02:49:59;;;;;;;;;;;;;;;24.88;35.13;99910.31;5014083;28;20057;-73
2022/08/01 02:52:32;;;;;;;;;;;;;;;24.90;35.05;99907.00;5014375;28;20272;-74
2022/08/01 02:55:01;;;;;;;;;;;;;;;24.93;34.58;99906.88;5014645;28;19919;-74
2022/08/01 02:57:30;;;;;;;;;;;;;;;24.94;35.22;99911.28;5014061;28;19943;-74
2022/08/01 02:59:58;;;;;;;;;;;;;;;24.93;35.50;99908.88;5013925;28;20372;-74
2022/08/01 03:02:24;;;;;;;;;;;;;;;24.95;33.84;99909.22;5014013;28;20008;-76
2022/08/01 03:04:51;;;;;;;;;;;;;;;25.07;34.50;99906.28;5014241;28;20375;-74
2022/08/01 03:07:17;;;;;;;;;;;;;;;25.03;33.77;99911.31;5013641;28;19916;-74
2022/08/01 03:09:44;;;;;;;;;;;;;;;25.00;34.50;99917.94;5015527;28;19909;-73
2022/08/01 03:12:15;;;;;;;;;;;;;;;24.97;33.86;99918.09;5013794;28;19923;-73
2022/08/01 03:14:48;;;;;;;;;;;;;;;25.03;30.67;99921.91;5013875;28;19909;-75
2022/08/01 03:17:17;;;;;;;;;;;;;;;24.99;32.74;99922.06;5014147;28;20291;-74
2022/08/01 03:19:47;;;;;;;;;;;;;;;25.00;33.52;99923.63;5013763;28;19909;-74
2022/08/01 03:22:14;;;;;;;;;;;;;;;25.03;32.58;99916.19;5014332;28;19913;-75
2022/08/01 03:24:44;;;;;;;;;;;;;;;25.07;31.26;99931.91;5014782;28;19909;-74
2022/08/01 03:27:10;;;;;;;;;;;;;;;25.04;32.08;99918.59;5014638;28;19909;-74
2022/08/01 03:29:36;;;;;;;;;;;;;;;24.99;32.56;99927.75;5013655;28;19910;-75
2022/08/01 03:32:02;;;;;;;;;;;;;;;25.00;33.27;99923.63;5013631;28;19913;-75
2022/08/01 03:34:28;;;;;;;;;;;;;;;25.01;33.52;99933.75;5013288;28;19923;-75
2022/08/01 03:37:01;;;;;;;;;;;;;;;25.01;34.40;99930.91;5013482;28;20007;-75
2022/08/01 03:39:30;;;;;;;;;;;;;;;24.95;34.54;99932.78;5013929;28;19909;-75
2022/08/01 03:41:57;;;;;;;;;;;;;;;24.91;34.38;99929.28;5013365;28;19909;-74
2022/08/01 03:44:26;;;;;;;;;;;;;;;24.87;34.51;99940.00;5013338;28;19958;-75
2022/08/01 03:46:56;;;;;;;;;;;;;;;24.85;34.89;99933.22;4997022;28;19914;-75
2022/08/01 03:49:23;;;;;;;;;;;;;;;24.84;34.80;99938.13;5013124;28;19959;-75
2022/08/01 03:51:53;;;;;;;;;;;;;;;24.86;34.36;99946.19;5013602;28;19909;-74
2022/08/01 03:54:21;;;;;;;;;;;;;;;24.78;33.91;99940.78;4997340;28;19963;-75
2022/08/01 03:56:47;;;;;;;;;;;;;;;24.77;34.36;99938.41;5012810;28;19913;-75
2022/08/01 03:59:14;;;;;;;;;;;;;;;24.83;33.33;99943.00;5012733;28;19909;-75
2022/08/01 04:01:42;;;;;;;;;;;;;;;24.77;34.29;99949.78;5013160;28;19989;-74
2022/08/01 04:04:07;;;;;;;;;;;;;;;24.74;33.82;99940.13;4997244;28;19917;-74
2022/08/01 04:06:33;;;;;;;;;;;;;;;24.75;34.37;99944.53;5013021;28;19995;-74
2022/08/01 04:08:58;;;;;;;;;;;;;;;24.72;34.20;99941.84;5013285;28;19988;-74
2022/08/01 04:11:25;;;;;;;;;;;;;;;24.75;34.49;99940.91;5013037;28;19909;-74
2022/08/01 04:13:57;;;;;;;;;;;;;;;24.74;34.29;99945.81;5013041;28;19909;-76
2022/08/01 04:16:22;;;;;;;;;;;;;;;24.72;33.88;99948.34;5012871;28;19956;-73
2022/08/01 04:18:50;;;;;;;;;;;;;;;24.73;33.86;99949.91;5012698;28;19952;-74
2022/08/01 04:21:18;;;;;;;;;;;;;;;24.76;34.01;99948.97;5012995;28;20015;-74
2022/08/01 04:23:44;;;;;;;;;;;;;;;25.02;33.78;99948.78;5013208;28;19913;-73
2022/08/01 04:26:14;;;;;;;;;;;;;;;25.79;33.16;99949.69;5012632;28;19909;-74
2022/08/01 04:28:40;;;;;;;;;;;;;;;26.57;31.85;99948.22;5012676;28;20427;-74
2022/08/01 04:31:11;;;;;;;;;;;;;;;27.35;31.02;99951.47;5012593;28;19948;-73
2022/08/01 04:33:38;;;;;;;;;;;;;;;28.07;29.26;99948.59;5012611;28;20299;-74
2022/08/01 04:36:06;;;;;;;;;;;;;;;28.75;28.47;99953.53;5012208;28;19913;-74
2022/08/01 04:38:33;;;;;;;;;;;;;;;29.37;27.81;99956.13;5012615;28;19910;-74
2022/08/01 04:41:01;;;;;;;;;;;;;;;29.82;26.76;99955.97;5012716;28;19917;-74
2022/08/01 04:43:27;;;;;;;;;;;;;;;30.22;26.18;99961.72;5012467;28;19952;-74
2022/08/01 04:46:00;;;;;;;;;;;;;;;30.55;24.50;99960.50;5012494;28;19956;-74
2022/08/01 04:48:25;;;;;;;;;;;;;;;30.64;24.74;99971.81;5013616;28;19909;-74
2022/08/01 04:50:56;;;;;;;;;;;;;;;30.95;24.26;99962.47;5013389;28;20367;-75
2022/08/01 04:53:21;;;;;;;;;;;;;;;31.26;23.46;99960.88;5012460;28;19915;-74
2022/08/01 04:55:47;;;;;;;;;;;;;;;31.12;23.68;99964.69;5012371;28;19918;-74
2022/08/01 04:58:16;;;;;;;;;;;;;;;31.30;23.17;99978.69;5012580;28;19910;-74
2022/08/01 05:00:46;;;;;;;;;;;;;;;31.06;23.51;99981.88;5012360;28;19916;-74
2022/08/01 05:03:12;;;;;;;;;;;;;;;30.90;23.99;99976.78;5012408;28;19913;-75
2022/08/01 05:05:40;;;;;;;;;;;;;;;30.92;24.31;99977.84;5012297;28;19975;-74
2022/08/01 05:08:07;;;;;;;;;;;;;;;30.76;23.62;99979.25;5012237;28;19920;-74
2022/08/01 05:10:33;;;;;;;;;;;;;;;30.88;23.85;99976.50;5015929;28;19956;-74
2022/08/01 05:13:01;;;;;;;;;;;;;;;31.28;23.93;99970.59;5015810;28;19917;-75
2022/08/01 05:15:32;;;;;;;;;;;;;;;31.81;23.05;99977.72;5016263;28;20263;-74
2022/08/01 05:17:58;;;;;;;;;;;;;;;31.89;23.28;99985.84;5016096;28;19922;-75
2022/08/01 05:20:23;;;;;;;;;;;;;;;32.12;23.83;99978.91;5015926;28;19909;-75
2022/08/01 05:22:51;;;;;;;;;;;;;;;31.47;23.66;99976.69;5016449;28;20044;-74
2022/08/01 05:25:17;;;;;;;;;;;;;;;31.66;23.53;99982.06;5015999;28;19916;-74
2022/08/01 05:27:42;;;;;;;;;;;;;;;32.03;23.63;99982.78;5016071;28;19916;-74
2022/08/01 05:30:14;;;;;;;;;;;;;;;32.19;23.12;99987.03;5016445;28;19910;-74
2022/08/01 05:32:40;;;;;;;;;;;;;;;32.92;23.05;99992.19;5015977;28;20346;-74
2022/08/01 05:35:06;;;;;;;;;;;;;;;33.18;22.66;99986.94;5015881;28;19957;-75
2022/08/01 05:37:32;;;;;;;;;;;;;;;32.75;22.10;99989.28;5015711;28;20004;-74
2022/08/01 05:39:57;;;;;;;;;;;;;;;32.28;22.26;99992.56;5015678;28;20012;-74
2022/08/01 05:42:22;;;;;;;;;;;;;;;32.69;22.28;99983.50;5015899;28;19963;-74
2022/08/01 05:44:50;;;;;;;;;;;;;;;32.99;22.36;99985.94;5015277;28;20287;-74
2022/08/01 05:47:19;;;;;;;;;;;;;;;33.41;22.67;99990.66;5015434;28;19916;-74
2022/08/01 05:49:47;;;;;;;;;;;;;;;33.05;22.00;99998.25;5015740;28;20003;-74
2022/08/01 05:52:15;;;;;;;;;;;;;;;32.65;22.52;99991.59;5016638;28;19909;-74
2022/08/01 05:54:43;;;;;;;;;;;;;;;33.50;21.37;99989.56;5016082;28;19960;-73
2022/08/01 05:57:11;;;;;;;;;;;;;;;33.14;21.88;99989.34;5015319;28;20003;-74
2022/08/01 05:59:37;;;;;;;;;;;;;;;33.35;21.10;99990.63;5015310;28;19960;-74
2022/08/01 06:02:02;;;;;;;;;;;;;;;34.25;20.43;99990.41;5015228;28;19909;-74
2022/08/01 06:04:30;;;;;;;;;;;;;;;33.84;20.59;99993.16;5015596;28;20410;-74
2022/08/01 06:06:58;;;;;;;;;;;;;;;33.72;21.23;99998.19;5015140;28;19952;-73
2022/08/01 06:09:23;;;;;;;;;;;;;;;34.36;20.38;99993.22;5015130;28;19939;-74
2022/08/01 06:11:51;;;;;;;;;;;;;;;33.98;20.74;99997.06;5015574;28;19910;-75
2022/08/01 06:14:19;;;;;;;;;;;;;;;33.70;21.25;100000.00;5015222;28;19972;-74
2022/08/01 06:16:47;;;;;;;;;;;;;;;34.06;21.15;100000.97;5015393;28;19999;-73
2022/08/01 06:19:12;;;;;;;;;;;;;;;33.75;21.45;100002.88;5015192;28;20280;-73
2022/08/01 06:21:37;;;;;;;;;;;;;;;33.17;22.74;100005.56;5014188;28;19913;-73
2022/08/01 06:24:03;;;;;;;;;;;;;;;33.18;22.48;99998.47;5014935;28;19931;-74
2022/08/01 06:26:28;;;;;;;;;;;;;;;33.15;22.93;100011.06;5014794;28;19964;-74
2022/08/01 06:28:54;;;;;;;;;;;;;;;32.74;23.39;100005.78;5014671;28;19909;-73
2022/08/01 06:31:19;;;;;;;;;;;;;;;33.01;23.21;100012.13;5014966;28;19909;-74
2022/08/01 06:33:44;;;;;;;;;;;;;;;33.42;22.33;100011.63;5015060;28;20375;-74
2022/08/01 06:36:10;;;;;;;;;;;;;;;32.70;23.31;100010.22;5017615;28;20000;-74
2022/08/01 06:38:36;;;;;;;;;;;;;;;33.29;22.37;100010.03;5017661;28;20336;-73
2022/08/01 06:41:02;;;;;;;;;;;;;;;33.55;22.04;100003.19;5018376;28;20008;-74
2022/08/01 06:43:27;;;;;;;;;;;;;;;33.80;21.78;100007.84;5035823;28;20301;-75
2022/08/01 06:45:52;;;;;;;;;;;;;;;33.44;22.43;100011.84;5017703;28;19996;-74
2022/08/01 06:48:20;;;;;;;;;;;;;;;33.84;21.99;100005.50;5017598;28;19909;-73
2022/08/01 06:51:07;;;;;;;;;;;;;;;33.84;22.51;100019.13;5018068;28;19996;-76
2022/08/01 06:53:33;;;;;;;;;;;;;;;33.85;22.02;100009.94;5017782;28;19909;-75
2022/08/01 06:55:58;;;;;;;;;;;;;;;33.53;22.84;100014.47;5018093;28;19963;-75
2022/08/01 06:58:23;;;;;;;;;;;;;;;34.30;21.99;100021.31;5017251;28;20267;-75
2022/08/01 07:00:49;;;;;;;;;;;;;;;33.58;22.84;100016.56;5017446;28;19908;-75
2022/08/01 07:03:16;;;;;;;;;;;;;;;34.12;22.69;100013.28;5017539;28;19909;-74
2022/08/01 07:05:42;;;;;;;;;;;;;;;33.88;22.98;100020.44;5017333;28;20015;-74
2022/08/01 07:08:10;;;;;;;;;;;;;;;33.64;22.83;100017.34;5017462;28;19998;-74
2022/08/01 07:10:35;;;;;;;;;;;;;;;33.74;23.02;100009.97;5018049;28;19909;-75
2022/08/01 07:13:01;;;;;;;;;;;;;;;33.76;22.57;100012.31;5017765;28;19931;-74
2022/08/01 07:15:28;;;;;;;;;;;;;;;33.55;22.85;100020.50;5017084;28;20386;-74
2022/08/01 07:17:54;;;;;;;;;;;;;;;33.86;22.57;100008.63;5017025;28;19909;-74
2022/08/01 07:20:22;;;;;;;;;;;;;;;33.57;23.24;100012.13;5017293;28;19915;-74
2022/08/01 07:22:48;;;;;;;;;;;;;;;33.31;23.81;100004.50;5016840;28;20421;-75
2022/08/01 07:25:13;;;;;;;;;;;;;;;33.07;24.02;100004.25;5016914;28;19957;-74
2022/08/01 07:27:44;;;;;;;;;;;;;;;32.99;24.15;100006.88;5016699;28;19967;-75
2022/08/01 07:30:12;;;;;;;;;;;;;;;34.56;22.36;99997.06;5016588;28;19928;-75
2022/08/01 07:32:40;;;;;;;;;;;;;;;34.16;22.63;100005.13;5016357;28;19950;-75
2022/08/01 07:35:06;;;;;;;;;;;;;;;33.78;23.04;100004.72;5013236;28;19958;-74
2022/08/01 07:37:31;;;;;;;;;;;;;;;33.73;23.38;100008.41;5013321;28;20311;-75
2022/08/01 07:39:57;;;;;;;;;;;;;;;34.49;22.17;99998.41;5013159;28;19914;-75
2022/08/01 07:42:24;;;;;;;;;;;;;;;35.52;20.94;100005.78;5013183;28;20422;-74
2022/08/01 07:44:53;;;;;;;;;;;;;;;36.40;20.20;100006.06;5012866;28;19909;-74
2022/08/01 07:47:26;;;;;;;;;;;;;;;35.60;20.14;100004.66;5013054;28;19940;-75
2022/08/01 07:49:54;;;;;;;;;;;;;;;35.95;19.94;100014.53;5013158;28;20264;-74
2022/08/01 07:52:22;;;;;;;;;;;;;;;35.74;20.16;100005.53;5012983;28;19916;-76
2022/08/01 07:54:50;;;;;;;;;;;;;;;35.19;19.74;100007.66;5013338;28;19932;-76
2022/08/01 07:57:15;;;;;;;;;;;;;;;36.63;19.36;100005.78;5012874;28;19916;-75
2022/08/01 07:59:41;;;;;;;;;;;;;;;36.30;19.06;100010.69;5012932;28;19909;-75
2022/08/01 08:02:06;;;;;;;;;;;;;;;36.78;18.89;100002.41;5013100;28;19909;-75
2022/08/01 08:04:31;;;;;;;;;;;;;;;37.05;18.73;100009.88;5013131;28;19971;-76
2022/08/01 08:07:02;;;;;;;;;;;;;;;37.00;18.58;100002.06;5013567;28;19920;-76
2022/08/01 08:09:30;;;;;;;;;;;;;;;37.76;18.55;100012.03;5013013;28;19913;-77
2022/08/01 08:11:56;;;;;;;;;;;;;;;36.30;19.22;99999.09;5012818;28;19996;-75
2022/08/01 08:14:23;;;;;;;;;;;;;;;36.11;19.80;100001.19;5012947;28;19964;-76
2022/08/01 08:16:49;;;;;;;;;;;;;;;35.83;19.68;100002.28;5012848;28;20363;-76
2022/08/01 08:19:17;;;;;;;;;;;;;;;35.93;19.47;100008.53;5012846;28;19956;-75
2022/08/01 08:21:42;;;;;;;;;;;;;;;36.10;19.20;99996.75;5014577;28;19909;-75
2022/08/01 08:24:21;;;;;;;;;;;;;;;35.14;20.18;99994.03;5012999;28;19966;-76
2022/08/01 08:26:57;;;;;;;;;;;;;;;35.65;19.28;99991.47;5013912;28;19956;-76
2022/08/01 08:29:23;;;;;;;;;;;;;;;35.82;19.48;99991.25;5012871;28;19909;-76
2022/08/01 08:31:48;;;;;;;;;;;;;;;36.56;19.08;99989.03;5012646;28;19909;-76
2022/08/01 08:34:14;;;;;;;;;;;;;;;36.81;19.46;99986.78;5018968;28;20003;-76
2022/08/01 08:36:39;;;;;;;;;;;;;;;36.81;19.31;99986.78;5016469;28;19994;-75
2022/08/01 08:39:07;;;;;;;;;;;;;;;36.78;19.14;99994.47;5016001;28;20347;-76
2022/08/01 08:41:33;;;;;;;;;;;;;;;37.37;18.31;99995.38;5016318;28;20443;-75
2022/08/01 08:44:05;;;;;;;;;;;;;;;37.71;18.14;99995.53;5017451;28;19920;-75
2022/08/01 08:46:32;;;;;;;;;;;;;;;38.06;17.88;99998.56;5019964;28;19999;-75
2022/08/01 08:48:59;;;;;;;;;;;;;;;38.46;17.50;99996.38;5020172;28;19962;-76
2022/08/01 08:51:26;;;;;;;;;;;;;;;35.94;19.72;99996.41;5037838;28;20007;-75
2022/08/01 08:53:54;;;;;;;;;;;;;;;35.80;19.83;99991.81;5037505;28;19975;-75
2022/08/01 08:56:20;;;;;;;;;;;;;;;35.74;19.56;99988.19;5037417;28;19952;-75
2022/08/01 08:58:45;;;;;;;;;;;;;;;35.51;20.07;99987.66;5020006;28;20259;-76
2022/08/01 09:01:12;;;;;;;;;;;;;;;36.20;19.44;99990.00;5019751;28;19915;-75
2022/08/01 09:03:41;;;;;;;;;;;;;;;36.10;19.48;99985.16;5019388;28;19913;-75
2022/08/01 09:06:06;;;;;;;;;;;;;;;35.06;21.11;99976.50;5019319;28;19999;-75
2022/08/01 09:08:32;;;;;;;;;;;;;;;36.06;20.27;99982.59;5036006;28;19964;-76
2022/08/01 09:11:00;;;;;;;;;;;;;;;36.49;19.05;99981.75;5019651;28;20033;-75
2022/08/01 09:13:25;;;;;;;;;;;;;;;35.50;19.59;99980.31;5019618;28;20336;-75
2022/08/01 09:15:55;;;;;;;;;;;;;;;35.85;19.87;99981.47;5019605;28;19916;-75
2022/08/01 09:18:29;;;;;;;;;;;;;;;35.13;19.80;99980.91;5003418;28;19913;-76
2022/08/01 09:21:09;;;;;;;;;;;;;;;35.79;19.67;99972.88;5019495;28;19920;-75
2022/08/01 09:23:38;;;;;;;;;;;;;;;36.47;18.96;99976.50;5019139;28;19920;-75
2022/08/01 09:26:04;;;;;;;;;;;;;;;37.14;18.61;99986.28;5037364;28;20367;-76
2022/08/01 09:28:29;;;;;;;;;;;;;;;36.57;19.04;99976.09;5036971;28;19977;-75
2022/08/01 09:30:55;;;;;;;;;;;;;;;37.00;18.56;99978.09;5019096;28;20008;-76
2022/08/01 09:33:21;;;;;;;;;;;;;;;36.45;18.55;99963.91;5019086;28;19916;-76
2022/08/01 09:35:56;;;;;;;;;;;;;;;36.53;17.98;99972.75;5036457;28;19920;-76
2022/08/01 09:38:26;;;;;;;;;;;;;;;37.41;17.54;99966.06;5036309;28;20000;-75
2022/08/01 09:40:53;;;;;;;;;;;;;;;35.85;18.88;99973.59;5018735;28;19909;-75
2022/08/01 09:43:19;;;;;;;;;;;;;;;35.40;19.07;99967.50;5018667;28;19917;-75
2022/08/01 09:45:48;;;;;;;;;;;;;;;33.70;20.78;99971.94;5018881;28;19909;-74
2022/08/01 09:48:16;;;;;;;;;;;;;;;34.30;20.03;99954.91;5018502;28;19996;-75
2022/08/01 09:50:42;;;;;;;;;;;;;;;34.94;20.06;99969.22;5018637;28;19916;-75
2022/08/01 09:53:08;;;;;;;;;;;;;;;35.34;19.33;99961.78;5018611;28;19919;-76
2022/08/01 09:55:34;;;;;;;;;;;;;;;35.05;19.62;99959.66;5017318;28;20040;-76
2022/08/01 09:58:00;;;;;;;;;;;;;;;35.39;20.32;99963.81;5018570;28;19972;-76
2022/08/01 10:00:28;;;;;;;;;;;;;;;34.84;20.66;99954.31;5018498;28;19963;-76
2022/08/01 10:02:56;;;;;;;;;;;;;;;35.04;20.37;99956.00;5036417;28;19963;-75
2022/08/01 10:05:32;;;;;;;;;;;;;;;34.61;20.07;99956.56;5018433;28;20306;-75
2022/08/01 10:08:03;;;;;;;;;;;;;;;35.27;19.67;99958.69;5018485;28;19954;-75
2022/08/01 10:10:31;;;;;;;;;;;;;;;35.78;19.53;99976.31;5034900;28;19916;-75
2022/08/01 10:13:01;;;;;;;;;;;;;;;36.15;19.18;99961.13;5002370;28;19913;-76
2022/08/01 10:15:26;;;;;;;;;;;;;;;35.79;19.73;99949.72;5018383;28;19909;-76
2022/08/01 10:17:54;;;;;;;;;;;;;;;36.52;19.20;99953.78;5018234;28;20367;-76
2022/08/01 10:20:20;;;;;;;;;;;;;;;36.65;18.80;99959.66;5018226;28;20018;-75
2022/08/01 10:22:45;;;;;;;;;;;;;;;36.12;19.54;99953.56;5018274;28;19909;-75
2022/08/01 10:25:16;;;;;;;;;;;;;;;35.08;20.16;99961.50;5018195;28;19916;-75
2022/08/01 10:27:45;;;;;;;;;;;;;;;34.87;20.57;99961.91;5035764;28;20352;-75
2022/08/01 10:30:16;;;;;;;;;;;;;;;35.55;19.62;99950.53;5018181;28;19944;-75
2022/08/01 10:32:44;;;;;;;;;;;;;;;34.87;20.47;99953.22;5018176;28;19916;-75
2022/08/01 10:35:17;;;;;;;;;;;;;;;34.88;20.61;99949.00;5017481;28;19912;-75
2022/08/01 10:37:45;;;;;;;;;;;;;;;35.74;19.96;99947.66;5035502;28;19909;-75
2022/08/01 10:40:14;;;;;;;;;;;;;;;34.16;21.00;99941.63;5017907;28;19963;-75
2022/08/01 10:42:43;;;;;;;;;;;;;;;35.03;20.44;99939.97;5017837;28;20000;-76
2022/08/01 10:45:11;;;;;;;;;;;;;;;35.79;20.27;99928.66;5017842;28;19909;-75
2022/08/01 10:47:44;;;;;;;;;;;;;;;35.84;19.54;99939.41;5018266;28;19909;-75
2022/08/01 10:50:19;;;;;;;;;;;;;;;35.84;20.12;99940.19;5017645;28;19948;-75
2022/08/01 10:53:03;;;;;;;;;;;;;;;36.54;19.32;99939.53;5035588;28;19909;-75
2022/08/01 10:55:31;;;;;;;;;;;;;;;34.92;20.00;99935.06;5033839;28;19912;-74
2022/08/01 10:58:01;;;;;;;;;;;;;;;34.67;20.46;99937.09;5017510;28;19959;-75
2022/08/01 11:00:27;;;;;;;;;;;;;;;34.91;20.72;99924.81;5017356;28;19909;-76
2022/08/01 11:03:03;;;;;;;;;;;;;;;34.85;21.01;99931.97;5017166;28;19916;-75
2022/08/01 11:05:35;;;;;;;;;;;;;;;34.40;21.05;99921.50;5017327;28;19935;-75
2022/08/01 11:08:03;;;;;;;;;;;;;;;34.25;21.81;99921.09;5017131;28;19909;-75
2022/08/01 11:10:31;;;;;;;;;;;;;;;34.38;21.25;99929.16;5017233;28;19952;-75
2022/08/01 11:13:03;;;;;;;;;;;;;;;34.68;21.14;99917.69;5035054;28;20363;-75
2022/08/01 11:15:34;;;;;;;;;;;;;;;35.34;20.31;99912.59;5034828;28;20291;-75
2022/08/01 11:18:23;;;;;;;;;;;;;;;35.71;19.77;99911.16;5017195;28;20348;-75
2022/08/01 11:20:57;;;;;;;;;;;;;;;34.87;21.37;99907.00;5006311;28;19912;-75
2022/08/01 11:23:23;;;;;;;;;;;;;;;35.73;20.29;99894.03;5017253;28;19932;-75
2022/08/01 11:25:52;;;;;;;;;;;;;;;35.50;20.08;99910.88;5017407;28;20347;-74
2022/08/01 11:28:17;;;;;;;;;;;;;;;34.91;21.24;99901.72;5016694;28;20354;-74
2022/08/01 11:31:01;;;;;;;;;;;;;;;34.37;21.41;99905.25;5017327;28;19909;-74
2022/08/01 11:33:52;;;;;;;;;;;;;;;34.85;21.15;99886.53;5033382;28;19909;-75
2022/08/01 11:36:20;;;;;;;;;;;;;;;35.17;20.93;99888.88;5008154;28;19974;-75
2022/08/01 11:38:46;;;;;;;;;;;;;;;34.63;21.04;99878.06;5016872;28;19956;-75
2022/08/01 11:41:13;;;;;;;;;;;;;;;35.23;20.65;99892.47;5016989;28;20385;-75
2022/08/01 11:43:57;;;;;;;;;;;;;;;35.48;20.56;99892.47;5017128;28;19908;-75
2022/08/01 11:46:41;;;;;;;;;;;;;;;36.20;19.86;99882.09;5016748;28;19909;-74
2022/08/01 11:49:22;;;;;;;;;;;;;;;36.64;19.08;99876.94;5033287;28;19909;-75
2022/08/01 11:51:47;;;;;;;;;;;;;;;36.65;19.16;99875.63;5016836;28;19909;-75
2022/08/01 11:54:15;;;;;;;;;;;;;;;35.91;19.82;99887.47;5016808;28;19908;-74
2022/08/01 11:56:41;;;;;;;;;;;;;;;34.92;20.38;99880.16;5016620;28;19995;-75
2022/08/01 11:59:09;;;;;;;;;;;;;;;35.36;20.90;99875.22;5015696;28;20012;-75
2022/08/01 12:01:37;;;;;;;;;;;;;;;36.06;20.11;99874.66;5016309;28;19966;-75
2022/08/01 12:04:02;;;;;;;;;;;;;;;35.90;20.33;99873.53;5016397;28;19909;-75
2022/08/01 12:06:28;;;;;;;;;;;;;;;35.38;20.32;99866.81;5016645;28;19947;-74
2022/08/01 12:08:57;;;;;;;;;;;;;;;34.97;21.18;99878.56;5016875;28;19913;-74
2022/08/01 12:11:22;;;;;;;;;;;;;;;34.75;21.99;99862.19;5016514;28;19909;-76
2022/08/01 12:13:49;;;;;;;;;;;;;;;34.50;21.44;99866.34;5016208;28;19924;-75
2022/08/01 12:16:14;;;;;;;;;;;;;;;34.40;21.98;99868.75;5016379;28;19916;-75
2022/08/01 12:18:43;;;;;;;;;;;;;;;34.49;21.08;99864.78;5015274;28;19913;-76
2022/08/01 12:21:09;;;;;;;;;;;;;;;35.10;21.10;99860.53;5016829;28;19916;-75
2022/08/01 12:23:34;;;;;;;;;;;;;;;34.85;20.84;99856.84;5016028;28;20298;-75
2022/08/01 12:26:01;;;;;;;;;;;;;;;35.08;20.84;99852.44;5016160;28;20007;-76
2022/08/01 12:28:29;;;;;;;;;;;;;;;35.37;21.53;99855.78;5034061;28;19915;-75
2022/08/01 12:31:00;;;;;;;;;;;;;;;35.43;21.03;99863.06;5016192;28;19912;-75
2022/08/01 12:33:28;;;;;;;;;;;;;;;36.02;20.44;99853.94;5016146;28;20348;-76
2022/08/01 12:35:57;;;;;;;;;;;;;;;36.25;20.36;99851.47;5012092;28;20334;-75
2022/08/01 12:38:24;;;;;;;;;;;;;;;36.06;19.87;99837.00;5012834;28;19948;-75
2022/08/01 12:40:53;;;;;;;;;;;;;;;36.35;19.78;99827.34;5012596;28;20264;-76
2022/08/01 12:43:19;;;;;;;;;;;;;;;35.69;20.40;99829.91;5012672;28;19940;-75
2022/08/01 12:45:53;;;;;;;;;;;;;;;35.52;20.58;99843.78;5013083;28;19909;-76
2022/08/01 12:48:19;;;;;;;;;;;;;;;35.56;20.82;99842.16;5012771;28;20229;-75
2022/08/01 12:50:48;;;;;;;;;;;;;;;35.99;20.30;99828.97;5012516;28;19913;-75